Dock, Kentucky
Current Conditions -  °F | °C
As of 9:15 AM on Monday 20 Oct 2014 (Local Time) from KSJS Reporting Station
Clear Clear  
Wind Chill: 46°   Ceiling: Unl
Heat Index: 46°   Visibility: 10mi
Dew Point: 42°   Wind: 3mph
Humidity: 87%   Direction: 200°SSW
Pressure: 30.09"   Gusts: NA
Location:  37.6405°N, 82.8256°W
Report Text: KSJS 201315Z AUTO 20003KT 10SM CLR 08/06 A3009 RMK AO2 T00790058
Loading
Personal Weather Stations






























Interactive Weather Map New forecast layout! Learn more

10-Day Weather Forecast

Advertisements
Track Severe Weather on mobile